Scotia — MXHR6 — position and weather

sailwx.info

Track history (hours):
 
Tides and Currents Weather Stations Pressure Air Temp Water Temp Dewpoint Dewpoint Depression Visibility Wind Speed Wind Dir Waves Ship Positions

Oceanographic research ship Scotia (UK)

Detailed information on ship capabilities available from University of Delaware's Ocean Information Center.

Last reported at 2017-Dec-08 23:53 UTC. Time now 2017-Dec-12 08:14 UTC.
Position N 57°02' W 001°38'.

Length 68.6 m; beam 15 m; draft 5.6 m.

Type: Other ship. MMSI: 234973000.

Date/timePositionNaut miles runAvg speedWind from/ knotsBaromVisibWave heightAir tempDewpointWater temp
2017-Dec-08 23:53N 57°02' W 001°38'2 5.3
2017-Dec-08 23:27N 57°02' W 001°42'2 4.2
2017-Dec-08 23:00N 57°03' W 001°45'2 4.2
2017-Dec-08 22:30N 57°03' W 001°49'2 4.0
2017-Dec-08 22:00N 57°04' W 001°53'1 2.7
2017-Dec-08 21:30N 57°03' W 001°55'1 2.2
2017-Dec-08 21:00N 57°02' W 001°55'1 3.0
2017-Dec-08 20:30N 57°01' W 001°54'1 1.9
2017-Dec-08 20:00N 56°60' W 001°54'1 2.8
2017-Dec-08 19:30N 56°59' W 001°55'1 2.9
2017-Dec-08 19:00N 56°57' W 001°56'1 2.0
2017-Dec-08 18:30N 56°58' W 001°55'3 4.9
2017-Dec-08 17:49N 57°01' W 001°54'2 4.8
2017-Dec-08 17:30N 57°03' W 001°53'1 2.7
2017-Dec-08 17:00N 57°03' W 001°51'2 3.0
2017-Dec-08 16:30N 57°03' W 001°48'1 2.9
2017-Dec-08 16:00N 57°02' W 001°45'2 3.0
2017-Dec-08 15:27N 57°02' W 001°42'2 3.8
2017-Dec-08 14:55N 57°02' W 001°39'5 1.5
2017-Dec-08 11:38N 57°00' W 001°47'0 0.6
2017-Dec-08 11:30N 57°00' W 001°47'2 4.0
2017-Dec-08 10:57N 56°60' W 001°51'510.5
2017-Dec-08 10:29N 56°59' W 002°00'3 2.1
2017-Dec-08 09:02N 57°01' W 002°04'1 9.4
2017-Dec-08 08:58N 57°02' W 002°04'4 9.5
2017-Dec-08 08:31N 57°06' W 002°01'3 6.5
2017-Dec-08 08:00N 57°09' W 002°03'1 2.0
2017-Dec-08 07:29N 57°09' W 002°05'0 0.0
2017-Dec-08 06:59N 57°09' W 002°05'0 0.0
2017-Dec-08 06:29N 57°09' W 002°05'0 0.0
2017-Dec-08 05:59N 57°09' W 002°05'0 0.0
2017-Dec-08 05:29N 57°09' W 002°05'0 0.0
2017-Dec-08 04:59N 57°09' W 002°05'0 0.0
2017-Dec-08 04:29N 57°09' W 002°05'0 0.0
2017-Dec-08 03:59N 57°09' W 002°05'0 0.0
2017-Dec-08 03:29N 57°09' W 002°05'0 0.0
2017-Dec-08 02:59N 57°09' W 002°05'0 0.0
2017-Dec-08 02:29N 57°09' W 002°05'0 0.0
2017-Dec-08 01:59N 57°09' W 002°05'0 0.0
2017-Dec-08 01:29N 57°09' W 002°05'0 0.0
2017-Dec-08 00:59N 57°09' W 002°05'0 0.0
2017-Dec-08 00:29N 57°09' W 002°05'0 0.0
2017-Dec-07 23:59N 57°09' W 002°05'0 0.0
2017-Dec-07 23:29N 57°09' W 002°05'0 0.0
2017-Dec-07 22:59N 57°09' W 002°05'0 0.0
2017-Dec-07 22:29N 57°09' W 002°05'0 0.0
2017-Dec-07 21:59N 57°09' W 002°05'0 0.0
2017-Dec-07 21:29N 57°09' W 002°05'0 0.0
2017-Dec-07 20:59N 57°09' W 002°05'0 0.0
2017-Dec-07 20:29N 57°09' W 002°05'0 0.0
2017-Dec-07 19:59N 57°09' W 002°05'0 0.0
2017-Dec-07 19:29N 57°09' W 002°05'0 0.0
2017-Dec-07 18:59N 57°09' W 002°05'0 0.0
2017-Dec-07 18:29N 57°09' W 002°05'0 0.0
2017-Dec-07 17:59N 57°09' W 002°05'0 0.0
2017-Dec-07 17:29N 57°09' W 002°05'0 0.0
2017-Dec-07 16:59N 57°09' W 002°05'0 0.0
2017-Dec-07 16:29N 57°09' W 002°05'0 0.0
2017-Dec-07 15:59N 57°09' W 002°05'0 0.0
2017-Dec-07 15:29N 57°09' W 002°05'0 0.0
2017-Dec-07 14:59N 57°09' W 002°05'0 0.0
2017-Dec-07 14:29N 57°09' W 002°05'0 0.0
2017-Dec-07 13:59N 57°09' W 002°05'0 0.0
2017-Dec-07 13:29N 57°09' W 002°05'0 0.0
2017-Dec-07 12:59N 57°09' W 002°05'0 0.0
2017-Dec-07 12:29N 57°09' W 002°05'0 0.0
2017-Dec-07 11:59N 57°09' W 002°05'0 0.0
2017-Dec-07 11:29N 57°09' W 002°05'0 0.0
2017-Dec-07 10:59N 57°09' W 002°05'0 0.0
2017-Dec-07 10:29N 57°09' W 002°05'0 0.0
2017-Dec-07 09:59N 57°09' W 002°05'0 0.0
2017-Dec-07 09:29N 57°09' W 002°05'0 0.0
2017-Dec-07 08:56N 57°09' W 002°05'0 0.0
2017-Dec-07 08:29N 57°09' W 002°05'0 0.0
2017-Dec-07 07:59N 57°09' W 002°05'0 0.0
2017-Dec-07 07:29N 57°09' W 002°05'0 0.0
2017-Dec-07 06:59N 57°09' W 002°05'0 0.0
2017-Dec-07 06:26N 57°09' W 002°05'0 0.0
2017-Dec-07 05:59N 57°09' W 002°05'0 0.0
2017-Dec-07 05:29N 57°09' W 002°05'0 0.0
2017-Dec-07 04:59N 57°09' W 002°05'0 0.0
2017-Dec-07 04:29N 57°09' W 002°05'0 0.0
2017-Dec-07 03:59N 57°09' W 002°05'0 0.0
2017-Dec-07 03:29N 57°09' W 002°05'0 0.0
2017-Dec-07 02:59N 57°09' W 002°05'0 0.0
2017-Dec-07 02:29N 57°09' W 002°05'0 0.0
2017-Dec-07 01:59N 57°09' W 002°05'0 0.0
2017-Dec-07 01:29N 57°09' W 002°05'0 0.0
2017-Dec-07 00:59N 57°09' W 002°05'0 0.0
2017-Dec-07 00:26N 57°09' W 002°05'0 0.0
2017-Dec-06 23:59N 57°09' W 002°05'0 0.0
2017-Dec-06 23:29N 57°09' W 002°05'0 0.0
2017-Dec-06 22:59N 57°09' W 002°05'0 0.0
2017-Dec-06 22:29N 57°09' W 002°05'0 0.0
2017-Dec-06 21:59N 57°09' W 002°05'0 0.0
2017-Dec-06 21:29N 57°09' W 002°05'0 0.0
2017-Dec-06 20:59N 57°09' W 002°05'  
2017-Dec-04 10:29N 57°09' W 002°05'0 0.0
2017-Dec-04 09:59N 57°09' W 002°05'0 0.0
2017-Dec-04 09:29N 57°09' W 002°05'0 0.0
2017-Dec-04 08:56N 57°09' W 002°05'0 0.0
2017-Dec-04 08:29N 57°09' W 002°05'0 0.0
2017-Dec-04 07:59N 57°09' W 002°05'0 0.0
2017-Dec-04 07:29N 57°09' W 002°05'0 0.0
2017-Dec-04 06:59N 57°09' W 002°05'0 0.0
2017-Dec-04 06:29N 57°09' W 002°05'0 0.0
2017-Dec-04 05:59N 57°09' W 002°05'0 0.0
2017-Dec-04 05:29N 57°09' W 002°05'0 0.0
2017-Dec-04 04:59N 57°09' W 002°05'0 0.0
2017-Dec-04 04:29N 57°09' W 002°05'0 0.0
2017-Dec-04 03:59N 57°09' W 002°05'0 0.0
2017-Dec-04 03:29N 57°09' W 002°05'0 0.0
2017-Dec-04 02:59N 57°09' W 002°05'0 0.0
2017-Dec-04 02:29N 57°09' W 002°05'0 0.0
2017-Dec-04 01:59N 57°09' W 002°05'0 0.0
2017-Dec-04 01:29N 57°09' W 002°05'0 0.0
2017-Dec-04 00:59N 57°09' W 002°05'0 0.0
2017-Dec-04 00:29N 57°09' W 002°05'0 0.0
2017-Dec-03 23:59N 57°09' W 002°05'0 0.0
2017-Dec-03 23:29N 57°09' W 002°05'0 0.0
2017-Dec-03 22:59N 57°09' W 002°05'0 0.0
2017-Dec-03 22:29N 57°09' W 002°05'0 0.0
2017-Dec-03 21:59N 57°09' W 002°05'0 0.0
2017-Dec-03 21:29N 57°09' W 002°05'0 0.0
2017-Dec-03 20:59N 57°09' W 002°05'0 0.0
2017-Dec-03 20:29N 57°09' W 002°05'0 0.0
2017-Dec-03 19:59N 57°09' W 002°05'0 0.0
2017-Dec-03 19:29N 57°09' W 002°05'0 0.0
2017-Dec-03 18:59N 57°09' W 002°05'0 0.0
2017-Dec-03 18:29N 57°09' W 002°05'0 0.0
2017-Dec-03 17:59N 57°09' W 002°05'0 0.0
2017-Dec-03 17:29N 57°09' W 002°05'0 0.0
2017-Dec-03 16:59N 57°09' W 002°05'0 0.0
2017-Dec-03 16:29N 57°09' W 002°05'0 0.0
2017-Dec-03 15:59N 57°09' W 002°05'0 0.0
2017-Dec-03 15:29N 57°09' W 002°05'0 0.0
2017-Dec-03 14:59N 57°09' W 002°05'0 0.0
2017-Dec-03 14:29N 57°09' W 002°05'0 0.0
2017-Dec-03 13:59N 57°09' W 002°05'0 0.0
2017-Dec-03 13:29N 57°09' W 002°05'0 0.0
2017-Dec-03 12:59N 57°09' W 002°05'0 0.0
2017-Dec-03 12:29N 57°09' W 002°05'0 0.0
2017-Dec-03 11:59N 57°09' W 002°05'0 0.0
2017-Dec-03 11:29N 57°09' W 002°05'0 0.0
2017-Dec-03 10:59N 57°09' W 002°05'0 0.0
2017-Dec-03 10:29N 57°09' W 002°05'0 0.0
2017-Dec-03 09:59N 57°09' W 002°05'0 0.0
2017-Dec-03 09:29N 57°09' W 002°05'0 0.0
2017-Dec-03 08:59N 57°09' W 002°05'0 0.0
2017-Dec-03 08:29N 57°09' W 002°05'0 0.0
2017-Dec-03 07:59N 57°09' W 002°05'0 0.0
2017-Dec-03 07:29N 57°09' W 002°05'0 0.0
2017-Dec-03 06:59N 57°09' W 002°05'0 0.0
2017-Dec-03 06:29N 57°09' W 002°05'0 0.0
2017-Dec-03 05:59N 57°09' W 002°05'0 0.0
2017-Dec-03 05:29N 57°09' W 002°05'0 0.0
2017-Dec-03 04:59N 57°09' W 002°05'0 0.0
2017-Dec-03 04:29N 57°09' W 002°05'0 0.0
2017-Dec-03 03:59N 57°09' W 002°05'0 0.0
2017-Dec-03 03:29N 57°09' W 002°05'0 0.0
2017-Dec-03 02:59N 57°09' W 002°05'0 0.0
2017-Dec-03 02:29N 57°09' W 002°05'0 0.0
2017-Dec-03 01:59N 57°09' W 002°05'0 0.0
2017-Dec-03 01:29N 57°09' W 002°05'0 0.0
2017-Dec-03 00:59N 57°09' W 002°05'0 0.0
2017-Dec-03 00:29N 57°09' W 002°05'0 0.0
2017-Dec-02 23:59N 57°09' W 002°05'0 0.0
2017-Dec-02 23:29N 57°09' W 002°05'0 0.0
2017-Dec-02 22:59N 57°09' W 002°05'0 0.0
2017-Dec-02 22:29N 57°09' W 002°05'0 0.0
2017-Dec-02 21:59N 57°09' W 002°05'0 0.0
2017-Dec-02 21:29N 57°09' W 002°05'0 0.0
2017-Dec-02 20:59N 57°09' W 002°05'0 0.1
2017-Dec-02 20:31N 57°09' W 002°05'1 2.5
2017-Dec-02 20:01N 57°09' W 002°03'2 3.7
2017-Dec-02 19:30N 57°10' W 002°00'1 1.4
2017-Dec-02 19:00N 57°11' W 001°60'0 0.4
2017-Dec-02 18:30N 57°11' W 001°60'1 2.4
2017-Dec-02 18:01N 57°11' W 001°58'3 6.1
2017-Dec-02 17:30N 57°13' W 001°54'4 8.7
2017-Dec-02 17:00N 57°17' W 001°48'46 9.0
2017-Dec-02 11:51N 58°02' W 002°09'410.8
2017-Dec-02 11:27N 58°05' W 002°14'710.9
2017-Dec-02 10:50N 58°11' W 002°21'411.0
2017-Dec-02 10:30N 58°14' W 002°24'611.3
2017-Dec-02 10:00N 58°19' W 002°30'611.4
2017-Dec-02 09:30N 58°24' W 002°35'611.5
2017-Dec-02 09:00N 58°28' W 002°42'612.2
2017-Dec-02 08:31N 58°33' W 002°49'815.2
2017-Dec-02 08:01N 58°39' W 002°59'1015.0
2017-Dec-02 07:22N 58°43' W 003°15'513.7
2017-Dec-02 07:00N 58°43' W 003°25'5810.1
2017-Dec-02 01:17N 58°30' W 005°14'181 5.3
2017-Nov-30 14:54N 55°50' W 007°48'5 8.5
2017-Nov-30 14:21N 55°46' W 007°51'4 8.2
2017-Nov-30 13:49N 55°42' W 007°53'3 8.2
2017-Nov-30 13:30N 55°39' W 007°54'0 0.3
2017-Nov-30 12:58N 55°39' W 007°54'2 3.3
2017-Nov-30 12:26N 55°40' W 007°57'2 4.1
2017-Nov-30 11:58N 55°40' W 008°00'7 9.4
2017-Nov-30 11:16N 55°44' W 008°10'4 9.3
2017-Nov-30 10:53N 55°46' W 008°15'2 3.9
2017-Nov-30 10:28N 55°47' W 008°16'3 6.1
2017-Nov-30 09:57N 55°50' W 008°16'510.2
2017-Nov-30 09:28N 55°55' W 008°18'10 1.3
2017-Nov-30 02:08N 55°48' W 008°30'1 3.9
2017-Nov-30 02:00N 55°48' W 008°31'8 4.5
2017-Nov-30 00:10N 55°41' W 008°39'1 4.4
2017-Nov-30 00:00N 55°41' W 008°40'7 4.5
2017-Nov-29 22:21N 55°34' W 008°46'3 5.1
2017-Nov-29 21:48N 55°31' W 008°45'2 5.2
2017-Nov-29 21:28N 55°29' W 008°44'3 5.6
2017-Nov-29 21:00N 55°27' W 008°43'3 5.2
2017-Nov-29 20:30N 55°24' W 008°43'3 5.4
2017-Nov-29 19:52N 55°21' W 008°43'5 5.5
2017-Nov-29 18:56N 55°16' W 008°43'6 3.2
2017-Nov-29 16:57N 55°10' W 008°48'6 4.7
2017-Nov-29 15:44N 55°16' W 008°46'210.0
2017-Nov-29 15:30N 55°18' W 008°45'610.1
2017-Nov-29 14:56N 55°24' W 008°43'1 2.8
2017-Nov-29 14:29N 55°25' W 008°43'1 2.8
2017-Nov-29 14:01N 55°23' W 008°42'2 3.5
2017-Nov-29 13:30N 55°24' W 008°45'510.0
2017-Nov-29 12:58N 55°26' W 008°54'  
Track history (hours):
 
Tides and Currents Weather Stations Pressure Air Temp Water Temp Dewpoint Dewpoint Depression Visibility Wind Speed Wind Dir Waves Ship Positions

Oceanographic research ship Scotia (UK)

Detailed information on ship capabilities available from University of Delaware's Ocean Information Center.

Last reported at 2017-Dec-08 23:53 UTC. Time now 2017-Dec-12 08:14 UTC.
Position N 57°02' W 001°38'.

Length 68.6 m; beam 15 m; draft 5.6 m.

Type: Other ship. MMSI: 234973000.

Date/timePositionNaut miles runAvg speedWind from/ knotsBaromVisibWave heightAir tempDewpointWater temp
2017-Dec-08 23:53N 57°02' W 001°38'2 5.3
2017-Dec-08 23:27N 57°02' W 001°42'2 4.2
2017-Dec-08 23:00N 57°03' W 001°45'2 4.2
2017-Dec-08 22:30N 57°03' W 001°49'2 4.0
2017-Dec-08 22:00N 57°04' W 001°53'1 2.7
2017-Dec-08 21:30N 57°03' W 001°55'1 2.2
2017-Dec-08 21:00N 57°02' W 001°55'1 3.0
2017-Dec-08 20:30N 57°01' W 001°54'1 1.9
2017-Dec-08 20:00N 56°60' W 001°54'1 2.8
2017-Dec-08 19:30N 56°59' W 001°55'1 2.9
2017-Dec-08 19:00N 56°57' W 001°56'1 2.0
2017-Dec-08 18:30N 56°58' W 001°55'3 4.9
2017-Dec-08 17:49N 57°01' W 001°54'2 4.8
2017-Dec-08 17:30N 57°03' W 001°53'1 2.7
2017-Dec-08 17:00N 57°03' W 001°51'2 3.0
2017-Dec-08 16:30N 57°03' W 001°48'1 2.9
2017-Dec-08 16:00N 57°02' W 001°45'2 3.0
2017-Dec-08 15:27N 57°02' W 001°42'2 3.8
2017-Dec-08 14:55N 57°02' W 001°39'5 1.5
2017-Dec-08 11:38N 57°00' W 001°47'0 0.6
2017-Dec-08 11:30N 57°00' W 001°47'2 4.0
2017-Dec-08 10:57N 56°60' W 001°51'510.5
2017-Dec-08 10:29N 56°59' W 002°00'3 2.1
2017-Dec-08 09:02N 57°01' W 002°04'1 9.4
2017-Dec-08 08:58N 57°02' W 002°04'4 9.5
2017-Dec-08 08:31N 57°06' W 002°01'3 6.5
2017-Dec-08 08:00N 57°09' W 002°03'1 2.0
2017-Dec-08 07:29N 57°09' W 002°05'0 0.0
2017-Dec-08 06:59N 57°09' W 002°05'0 0.0
2017-Dec-08 06:29N 57°09' W 002°05'0 0.0
2017-Dec-08 05:59N 57°09' W 002°05'0 0.0
2017-Dec-08 05:29N 57°09' W 002°05'0 0.0
2017-Dec-08 04:59N 57°09' W 002°05'0 0.0
2017-Dec-08 04:29N 57°09' W 002°05'0 0.0
2017-Dec-08 03:59N 57°09' W 002°05'0 0.0
2017-Dec-08 03:29N 57°09' W 002°05'0 0.0
2017-Dec-08 02:59N 57°09' W 002°05'0 0.0
2017-Dec-08 02:29N 57°09' W 002°05'0 0.0
2017-Dec-08 01:59N 57°09' W 002°05'0 0.0
2017-Dec-08 01:29N 57°09' W 002°05'0 0.0
2017-Dec-08 00:59N 57°09' W 002°05'0 0.0
2017-Dec-08 00:29N 57°09' W 002°05'0 0.0
2017-Dec-07 23:59N 57°09' W 002°05'0 0.0
2017-Dec-07 23:29N 57°09' W 002°05'0 0.0
2017-Dec-07 22:59N 57°09' W 002°05'0 0.0
2017-Dec-07 22:29N 57°09' W 002°05'0 0.0
2017-Dec-07 21:59N 57°09' W 002°05'0 0.0
2017-Dec-07 21:29N 57°09' W 002°05'0 0.0
2017-Dec-07 20:59N 57°09' W 002°05'0 0.0
2017-Dec-07 20:29N 57°09' W 002°05'0 0.0
2017-Dec-07 19:59N 57°09' W 002°05'0 0.0
2017-Dec-07 19:29N 57°09' W 002°05'0 0.0
2017-Dec-07 18:59N 57°09' W 002°05'0 0.0
2017-Dec-07 18:29N 57°09' W 002°05'0 0.0
2017-Dec-07 17:59N 57°09' W 002°05'0 0.0
2017-Dec-07 17:29N 57°09' W 002°05'0 0.0
2017-Dec-07 16:59N 57°09' W 002°05'0 0.0
2017-Dec-07 16:29N 57°09' W 002°05'0 0.0
2017-Dec-07 15:59N 57°09' W 002°05'0 0.0
2017-Dec-07 15:29N 57°09' W 002°05'0 0.0
2017-Dec-07 14:59N 57°09' W 002°05'0 0.0
2017-Dec-07 14:29N 57°09' W 002°05'0 0.0
2017-Dec-07 13:59N 57°09' W 002°05'0 0.0
2017-Dec-07 13:29N 57°09' W 002°05'0 0.0
2017-Dec-07 12:59N 57°09' W 002°05'0 0.0
2017-Dec-07 12:29N 57°09' W 002°05'0 0.0
2017-Dec-07 11:59N 57°09' W 002°05'0 0.0
2017-Dec-07 11:29N 57°09' W 002°05'0 0.0
2017-Dec-07 10:59N 57°09' W 002°05'0 0.0
2017-Dec-07 10:29N 57°09' W 002°05'0 0.0
2017-Dec-07 09:59N 57°09' W 002°05'0 0.0
2017-Dec-07 09:29N 57°09' W 002°05'0 0.0
2017-Dec-07 08:56N 57°09' W 002°05'0 0.0
2017-Dec-07 08:29N 57°09' W 002°05'0 0.0
2017-Dec-07 07:59N 57°09' W 002°05'0 0.0
2017-Dec-07 07:29N 57°09' W 002°05'0 0.0
2017-Dec-07 06:59N 57°09' W 002°05'0 0.0
2017-Dec-07 06:26N 57°09' W 002°05'0 0.0
2017-Dec-07 05:59N 57°09' W 002°05'0 0.0
2017-Dec-07 05:29N 57°09' W 002°05'0 0.0
2017-Dec-07 04:59N 57°09' W 002°05'0 0.0
2017-Dec-07 04:29N 57°09' W 002°05'0 0.0
2017-Dec-07 03:59N 57°09' W 002°05'0 0.0
2017-Dec-07 03:29N 57°09' W 002°05'0 0.0
2017-Dec-07 02:59N 57°09' W 002°05'0 0.0
2017-Dec-07 02:29N 57°09' W 002°05'0 0.0
2017-Dec-07 01:59N 57°09' W 002°05'0 0.0
2017-Dec-07 01:29N 57°09' W 002°05'0 0.0
2017-Dec-07 00:59N 57°09' W 002°05'0 0.0
2017-Dec-07 00:26N 57°09' W 002°05'0 0.0
2017-Dec-06 23:59N 57°09' W 002°05'0 0.0
2017-Dec-06 23:29N 57°09' W 002°05'0 0.0
2017-Dec-06 22:59N 57°09' W 002°05'0 0.0
2017-Dec-06 22:29N 57°09' W 002°05'0 0.0
2017-Dec-06 21:59N 57°09' W 002°05'0 0.0
2017-Dec-06 21:29N 57°09' W 002°05'0 0.0
2017-Dec-06 20:59N 57°09' W 002°05'  
2017-Dec-04 10:29N 57°09' W 002°05'0 0.0
2017-Dec-04 09:59N 57°09' W 002°05'0 0.0
2017-Dec-04 09:29N 57°09' W 002°05'0 0.0
2017-Dec-04 08:56N 57°09' W 002°05'0 0.0
2017-Dec-04 08:29N 57°09' W 002°05'0 0.0
2017-Dec-04 07:59N 57°09' W 002°05'0 0.0
2017-Dec-04 07:29N 57°09' W 002°05'0 0.0
2017-Dec-04 06:59N 57°09' W 002°05'0 0.0
2017-Dec-04 06:29N 57°09' W 002°05'0 0.0
2017-Dec-04 05:59N 57°09' W 002°05'0 0.0
2017-Dec-04 05:29N 57°09' W 002°05'0 0.0
2017-Dec-04 04:59N 57°09' W 002°05'0 0.0
2017-Dec-04 04:29N 57°09' W 002°05'0 0.0
2017-Dec-04 03:59N 57°09' W 002°05'0 0.0
2017-Dec-04 03:29N 57°09' W 002°05'0 0.0
2017-Dec-04 02:59N 57°09' W 002°05'0 0.0
2017-Dec-04 02:29N 57°09' W 002°05'0 0.0
2017-Dec-04 01:59N 57°09' W 002°05'0 0.0
2017-Dec-04 01:29N 57°09' W 002°05'0 0.0
2017-Dec-04 00:59N 57°09' W 002°05'0 0.0
2017-Dec-04 00:29N 57°09' W 002°05'0 0.0
2017-Dec-03 23:59N 57°09' W 002°05'0 0.0
2017-Dec-03 23:29N 57°09' W 002°05'0 0.0
2017-Dec-03 22:59N 57°09' W 002°05'0 0.0
2017-Dec-03 22:29N 57°09' W 002°05'0 0.0
2017-Dec-03 21:59N 57°09' W 002°05'0 0.0
2017-Dec-03 21:29N 57°09' W 002°05'0 0.0
2017-Dec-03 20:59N 57°09' W 002°05'0 0.0
2017-Dec-03 20:29N 57°09' W 002°05'0 0.0
2017-Dec-03 19:59N 57°09' W 002°05'0 0.0
2017-Dec-03 19:29N 57°09' W 002°05'0 0.0
2017-Dec-03 18:59N 57°09' W 002°05'0 0.0
2017-Dec-03 18:29N 57°09' W 002°05'0 0.0
2017-Dec-03 17:59N 57°09' W 002°05'0 0.0
2017-Dec-03 17:29N 57°09' W 002°05'0 0.0
2017-Dec-03 16:59N 57°09' W 002°05'0 0.0
2017-Dec-03 16:29N 57°09' W 002°05'0 0.0
2017-Dec-03 15:59N 57°09' W 002°05'0 0.0
2017-Dec-03 15:29N 57°09' W 002°05'0 0.0
2017-Dec-03 14:59N 57°09' W 002°05'0 0.0
2017-Dec-03 14:29N 57°09' W 002°05'0 0.0
2017-Dec-03 13:59N 57°09' W 002°05'0 0.0
2017-Dec-03 13:29N 57°09' W 002°05'0 0.0
2017-Dec-03 12:59N 57°09' W 002°05'0 0.0
2017-Dec-03 12:29N 57°09' W 002°05'0 0.0
2017-Dec-03 11:59N 57°09' W 002°05'0 0.0
2017-Dec-03 11:29N 57°09' W 002°05'0 0.0
2017-Dec-03 10:59N 57°09' W 002°05'0 0.0
2017-Dec-03 10:29N 57°09' W 002°05'0 0.0
2017-Dec-03 09:59N 57°09' W 002°05'0 0.0
2017-Dec-03 09:29N 57°09' W 002°05'0 0.0
2017-Dec-03 08:59N 57°09' W 002°05'0 0.0
2017-Dec-03 08:29N 57°09' W 002°05'0 0.0
2017-Dec-03 07:59N 57°09' W 002°05'0 0.0
2017-Dec-03 07:29N 57°09' W 002°05'0 0.0
2017-Dec-03 06:59N 57°09' W 002°05'0 0.0
2017-Dec-03 06:29N 57°09' W 002°05'0 0.0
2017-Dec-03 05:59N 57°09' W 002°05'0 0.0
2017-Dec-03 05:29N 57°09' W 002°05'0 0.0
2017-Dec-03 04:59N 57°09' W 002°05'0 0.0
2017-Dec-03 04:29N 57°09' W 002°05'0 0.0
2017-Dec-03 03:59N 57°09' W 002°05'0 0.0
2017-Dec-03 03:29N 57°09' W 002°05'0 0.0
2017-Dec-03 02:59N 57°09' W 002°05'0 0.0
2017-Dec-03 02:29N 57°09' W 002°05'0 0.0
2017-Dec-03 01:59N 57°09' W 002°05'0 0.0
2017-Dec-03 01:29N 57°09' W 002°05'0 0.0
2017-Dec-03 00:59N 57°09' W 002°05'0 0.0
2017-Dec-03 00:29N 57°09' W 002°05'0 0.0
2017-Dec-02 23:59N 57°09' W 002°05'0 0.0
2017-Dec-02 23:29N 57°09' W 002°05'0 0.0
2017-Dec-02 22:59N 57°09' W 002°05'0 0.0
2017-Dec-02 22:29N 57°09' W 002°05'0 0.0
2017-Dec-02 21:59N 57°09' W 002°05'0 0.0
2017-Dec-02 21:29N 57°09' W 002°05'0 0.0
2017-Dec-02 20:59N 57°09' W 002°05'0 0.1
2017-Dec-02 20:31N 57°09' W 002°05'1 2.5
2017-Dec-02 20:01N 57°09' W 002°03'2 3.7
2017-Dec-02 19:30N 57°10' W 002°00'1 1.4
2017-Dec-02 19:00N 57°11' W 001°60'0 0.4
2017-Dec-02 18:30N 57°11' W 001°60'1 2.4
2017-Dec-02 18:01N 57°11' W 001°58'3 6.1
2017-Dec-02 17:30N 57°13' W 001°54'4 8.7
2017-Dec-02 17:00N 57°17' W 001°48'46 9.0
2017-Dec-02 11:51N 58°02' W 002°09'410.8
2017-Dec-02 11:27N 58°05' W 002°14'710.9
2017-Dec-02 10:50N 58°11' W 002°21'411.0
2017-Dec-02 10:30N 58°14' W 002°24'611.3
2017-Dec-02 10:00N 58°19' W 002°30'611.4
2017-Dec-02 09:30N 58°24' W 002°35'611.5
2017-Dec-02 09:00N 58°28' W 002°42'612.2
2017-Dec-02 08:31N 58°33' W 002°49'815.2
2017-Dec-02 08:01N 58°39' W 002°59'1015.0
2017-Dec-02 07:22N 58°43' W 003°15'513.7
2017-Dec-02 07:00N 58°43' W 003°25'5810.1
2017-Dec-02 01:17N 58°30' W 005°14'181 5.3
2017-Nov-30 14:54N 55°50' W 007°48'5 8.5
2017-Nov-30 14:21N 55°46' W 007°51'4 8.2
2017-Nov-30 13:49N 55°42' W 007°53'3 8.2
2017-Nov-30 13:30N 55°39' W 007°54'0 0.3
2017-Nov-30 12:58N 55°39' W 007°54'2 3.3
2017-Nov-30 12:26N 55°40' W 007°57'2 4.1
2017-Nov-30 11:58N 55°40' W 008°00'7 9.4
2017-Nov-30 11:16N 55°44' W 008°10'4 9.3
2017-Nov-30 10:53N 55°46' W 008°15'2 3.9
2017-Nov-30 10:28N 55°47' W 008°16'3 6.1
2017-Nov-30 09:57N 55°50' W 008°16'510.2
2017-Nov-30 09:28N 55°55' W 008°18'10 1.3
2017-Nov-30 02:08N 55°48' W 008°30'1 3.9
2017-Nov-30 02:00N 55°48' W 008°31'8 4.5
2017-Nov-30 00:10N 55°41' W 008°39'1 4.4
2017-Nov-30 00:00N 55°41' W 008°40'7 4.5
2017-Nov-29 22:21N 55°34' W 008°46'3 5.1
2017-Nov-29 21:48N 55°31' W 008°45'2 5.2
2017-Nov-29 21:28N 55°29' W 008°44'3 5.6
2017-Nov-29 21:00N 55°27' W 008°43'3 5.2
2017-Nov-29 20:30N 55°24' W 008°43'3 5.4
2017-Nov-29 19:52N 55°21' W 008°43'5 5.5
2017-Nov-29 18:56N 55°16' W 008°43'6 3.2
2017-Nov-29 16:57N 55°10' W 008°48'6 4.7
2017-Nov-29 15:44N 55°16' W 008°46'210.0
2017-Nov-29 15:30N 55°18' W 008°45'610.1
2017-Nov-29 14:56N 55°24' W 008°43'1 2.8
2017-Nov-29 14:29N 55°25' W 008°43'1 2.8
2017-Nov-29 14:01N 55°23' W 008°42'2 3.5
2017-Nov-29 13:30N 55°24' W 008°45'510.0
2017-Nov-29 12:58N 55°26' W 008°54'  

Dump ship's entire track history